Time;durP1;ratioP1;P1;durP2;ratioP2;P2;SDS_P1;SDS_P2;PMS_P1;PMS_P2;Temp;Humidity;BMP_temperature;BMP_pressure;BME280_temperature;BME280_humidity;BME280_pressure;Samples;Min_cycle;Max_cycle;Signal;HPM_P1;HPM_P2
2022/03/12 07:53:22;;;;;;;;;;;;;;;9.77;55.05;97069.59;4227316;27;10270;-73
2022/03/12 07:55:24;;;;;;;;;;;;;;;9.67;56.26;97066.41;4228134;28;5818;-73
2022/03/12 07:57:28;;;;;;;;;;;;;;;9.72;55.48;97074.59;4227868;28;5699;-72
2022/03/12 07:59:34;;;;;;;;;;;;;;;9.86;55.27;97071.16;4223043;28;5804;-73
2022/03/12 08:01:36;;;;;;;;;;;;;;;9.95;55.28;97072.69;4239045;27;5692;-73
2022/03/12 08:03:38;;;;;;;;;;;;;;;10.01;54.65;97064.03;4245463;27;5740;-73
2022/03/12 08:05:40;;;;;;;;;;;;;;;9.89;55.13;97071.59;4245376;27;5734;-73
2022/03/12 08:07:42;;;;;;;;;;;;;;;9.86;55.03;97077.25;4245539;27;5727;-73
2022/03/12 08:09:43;;;;;;;;;;;;;;;9.90;54.43;97075.06;4234355;27;5718;-73
2022/03/12 08:11:45;;;;;;;;;;;;;;;9.96;54.51;97076.16;4228289;28;5818;-73
2022/03/12 08:13:48;;;;;;;;;;;;;;;9.98;54.57;97080.25;4227515;28;5719;-73
2022/03/12 08:15:50;;;;;;;;;;;;;;;10.05;54.24;97078.50;4228588;28;5715;-73
2022/03/12 08:17:51;;;;;;;;;;;;;;;10.10;54.02;97080.63;4234881;27;5713;-74
2022/03/12 08:19:54;;;;;;;;;;;;;;;9.94;54.23;97078.97;4245382;27;5716;-74
2022/03/12 08:21:59;;;;;;;;;;;;;;;9.95;54.06;97079.78;4245321;27;6577;-73
2022/03/12 08:24:02;;;;;;;;;;;;;;;10.11;53.67;97080.44;4245131;27;5719;-74
2022/03/12 08:26:04;;;;;;;;;;;;;;;10.12;52.75;97075.97;4240529;27;6416;-74
2022/03/12 08:28:06;;;;;;;;;;;;;;;10.13;52.33;97077.63;4228008;28;5704;-73
2022/03/12 08:30:09;;;;;;;;;;;;;;;10.15;52.63;97078.25;4228381;28;5935;-74
2022/03/12 08:32:12;;;;;;;;;;;;;;;10.03;52.22;97085.00;4228137;28;5724;-73
2022/03/12 08:34:14;;;;;;;;;;;;;;;10.11;51.78;97082.25;4227630;28;5088;-73
2022/03/12 08:36:16;;;;;;;;;;;;;;;10.17;51.59;97087.63;4221853;27;7754;-74
2022/03/12 08:38:19;;;;;;;;;;;;;;;10.26;51.51;97079.63;4228125;28;5720;-72
2022/03/12 08:40:22;;;;;;;;;;;;;;;9.92;51.62;97076.50;4228050;28;5719;-73
2022/03/12 08:42:24;;;;;;;;;;;;;;;9.85;51.27;97075.63;4227541;28;6369;-73
2022/03/12 08:44:26;;;;;;;;;;;;;;;10.04;51.05;97071.59;4227966;28;5841;-73
2022/03/12 08:46:27;;;;;;;;;;;;;;;10.14;50.73;97069.50;4227789;28;5091;-73
2022/03/12 08:48:30;;;;;;;;;;;;;;;10.28;50.39;97065.22;4227734;28;5712;-73
2022/03/12 08:50:32;;;;;;;;;;;;;;;10.33;50.25;97064.69;4228049;28;5699;-73
2022/03/12 08:52:38;;;;;;;;;;;;;;;10.39;49.58;97064.75;4226023;28;5604;-73
2022/03/12 08:54:39;;;;;;;;;;;;;;;10.14;49.14;97069.50;4216219;28;5647;-72
2022/03/12 08:56:41;;;;;;;;;;;;;;;10.16;48.24;97067.50;4216412;28;5620;-73
2022/03/12 08:58:43;;;;;;;;;;;;;;;10.39;49.22;97062.13;4215980;28;5620;-73
2022/03/12 09:00:44;;;;;;;;;;;;;;;10.52;48.38;97066.72;4216068;28;5620;-73
2022/03/12 09:02:47;;;;;;;;;;;;;;;10.57;48.11;97068.84;4216161;28;5647;-73
2022/03/12 09:04:49;;;;;;;;;;;;;;;10.60;48.10;97063.16;4216255;28;6406;-73
2022/03/12 09:06:51;;;;;;;;;;;;;;;10.76;47.80;97068.25;4215523;28;5715;-73
2022/03/12 09:08:55;;;;;;;;;;;;;;;10.78;47.17;97064.41;4215728;28;5707;-73
2022/03/12 09:10:59;;;;;;;;;;;;;;;10.75;47.51;97063.94;4213616;28;5707;-72
2022/03/12 09:13:01;;;;;;;;;;;;;;;10.77;47.51;97067.22;4215475;28;5718;-73
2022/03/12 09:15:04;;;;;;;;;;;;;;;10.80;47.87;97061.56;4215531;28;5652;-73
2022/03/12 09:17:06;;;;;;;;;;;;;;;10.74;47.56;97062.28;4216102;28;5730;-72
2022/03/12 09:19:08;;;;;;;;;;;;;;;10.88;46.95;97048.22;4210833;28;5811;-72
2022/03/12 09:21:10;;;;;;;;;;;;;;;10.97;48.04;97055.00;4210948;28;5860;-73
2022/03/12 09:23:17;;;;;;;;;;;;;;;11.00;47.84;97049.34;4213712;28;5734;-73
2022/03/12 09:25:19;;;;;;;;;;;;;;;11.06;48.23;97053.88;4215888;28;5755;-73
2022/03/12 09:27:21;;;;;;;;;;;;;;;11.11;48.56;97047.22;4215106;28;5728;-71
2022/03/12 09:29:23;;;;;;;;;;;;;;;10.99;49.05;97045.06;4205941;28;5758;-73
2022/03/12 09:31:25;;;;;;;;;;;;;;;11.02;49.57;97049.97;4206949;28;5711;-73
2022/03/12 09:33:26;;;;;;;;;;;;;;;10.84;48.04;97043.47;4213150;28;6306;-73
2022/03/12 09:35:28;;;;;;;;;;;;;;;10.61;48.59;97043.66;4213058;28;5720;-73
2022/03/12 09:37:30;;;;;;;;;;;;;;;10.64;48.48;97043.28;4214068;28;5711;-72
2022/03/12 09:39:32;;;;;;;;;;;;;;;10.71;48.57;97033.59;4215634;28;5833;-72
2022/03/12 09:41:38;;;;;;;;;;;;;;;10.88;45.84;97028.91;4213283;28;6396;-72
2022/03/12 09:43:41;;;;;;;;;;;;;;;11.06;46.61;97024.78;4213257;28;5704;-72
2022/03/12 09:45:43;;;;;;;;;;;;;;;11.19;46.29;97025.88;4211156;28;5715;-72
2022/03/12 09:47:44;;;;;;;;;;;;;;;11.29;46.59;97031.69;4214339;28;5817;-72
2022/03/12 09:49:46;;;;;;;;;;;;;;;11.40;46.14;97030.34;4212367;28;5715;-72
2022/03/12 09:51:49;;;;;;;;;;;;;;;11.50;45.36;97020.22;4212061;28;5703;-73
2022/03/12 09:53:50;;;;;;;;;;;;;;;11.54;44.98;97024.94;4214060;28;5949;-72
2022/03/12 09:55:52;;;;;;;;;;;;;;;11.47;42.46;97018.78;4206348;28;5826;-73
2022/03/12 09:57:53;;;;;;;;;;;;;;;11.47;44.08;97024.09;4215290;28;5707;-72
2022/03/12 09:59:56;;;;;;;;;;;;;;;11.68;43.42;97022.41;4210861;28;5293;-73
2022/03/12 10:01:58;;;;;;;;;;;;;;;11.65;42.70;97018.28;4209720;28;7682;-72
2022/03/12 10:04:00;;;;;;;;;;;;;;;11.82;43.88;97010.91;4215200;28;5719;-73
2022/03/12 10:06:02;;;;;;;;;;;;;;;11.84;43.28;97011.50;4212356;28;5707;-72
2022/03/12 10:08:03;;;;;;;;;;;;;;;11.91;43.50;97007.06;4215355;28;5715;-73
2022/03/12 10:10:06;;;;;;;;;;;;;;;12.01;42.65;97009.38;4212186;28;5727;-73
2022/03/12 10:12:09;;;;;;;;;;;;;;;12.09;43.15;97007.34;4214254;28;5715;-73
2022/03/12 10:14:11;;;;;;;;;;;;;;;12.09;42.82;97003.88;4210234;28;6721;-73
2022/03/12 10:16:14;;;;;;;;;;;;;;;12.08;42.74;97005.72;4213748;28;5851;-73
2022/03/12 10:18:20;;;;;;;;;;;;;;;11.99;42.19;97006.88;4210476;28;5671;-73
2022/03/12 10:20:22;;;;;;;;;;;;;;;12.01;42.70;97004.06;4213184;28;5711;-73
2022/03/12 10:22:24;;;;;;;;;;;;;;;12.07;42.94;97008.56;4213608;28;5700;-73
2022/03/12 10:24:25;;;;;;;;;;;;;;;12.12;42.83;97001.69;4214062;28;5840;-72
2022/03/12 10:26:28;;;;;;;;;;;;;;;12.01;42.07;96996.94;4213154;28;6284;-72
2022/03/12 10:28:34;;;;;;;;;;;;;;;11.91;42.77;96991.19;4214564;28;5759;-72
2022/03/12 10:30:36;;;;;;;;;;;;;;;11.75;43.25;96994.91;4214107;28;5730;-73
2022/03/12 10:32:56;;;;;;;;;;;;;;;11.74;43.05;96995.94;4214710;28;5724;-73
2022/03/12 10:35:01;;;;;;;;;;;;;;;11.85;43.49;96989.31;4211539;28;5715;-73
2022/03/12 10:37:09;;;;;;;;;;;;;;;11.91;44.03;96985.88;4209485;28;6408;-73
2022/03/12 10:39:11;;;;;;;;;;;;;;;11.95;44.57;96989.75;4212257;28;5813;-73
2022/03/12 10:41:13;;;;;;;;;;;;;;;11.89;45.08;96982.59;4212889;28;5719;-73
2022/03/12 10:43:15;;;;;;;;;;;;;;;11.84;48.80;96992.97;4211202;28;5628;-72
2022/03/12 10:45:20;;;;;;;;;;;;;;;12.00;47.54;96986.50;4214680;28;5715;-73
2022/03/12 10:47:23;;;;;;;;;;;;;;;11.89;48.63;96980.78;4209613;28;5707;-73
2022/03/12 10:49:24;;;;;;;;;;;;;;;12.08;46.95;96976.56;4206241;28;5716;-73
2022/03/12 10:51:29;;;;;;;;;;;;;;;12.07;46.70;96982.88;4212077;28;5850;-72
2022/03/12 10:53:32;;;;;;;;;;;;;;;11.94;45.26;96972.22;4207808;28;5806;-72
2022/03/12 10:55:40;;;;;;;;;;;;;;;11.96;44.85;96970.19;4207989;28;5707;-72
2022/03/12 10:58:03;;;;;;;;;;;;;;;12.01;44.63;96972.28;4211250;28;5726;-73
2022/03/12 11:00:09;;;;;;;;;;;;;;;11.91;43.46;96972.63;4209391;28;5742;-73
2022/03/12 11:02:11;;;;;;;;;;;;;;;11.93;43.63;96968.75;4211320;28;5712;-73
2022/03/12 11:04:23;;;;;;;;;;;;;;;12.02;43.51;96965.97;4211071;28;5719;-73
2022/03/12 11:06:25;;;;;;;;;;;;;;;11.91;42.96;96965.50;4206116;28;5723;-73
2022/03/12 11:08:30;;;;;;;;;;;;;;;11.83;42.94;96959.53;4212097;28;5727;-73
2022/03/12 11:10:33;;;;;;;;;;;;;;;11.76;42.85;96964.78;4210559;28;5735;-73
2022/03/12 11:12:38;;;;;;;;;;;;;;;11.69;41.87;96957.81;4204848;27;5886;-71
2022/03/12 11:14:40;;;;;;;;;;;;;;;11.54;43.29;96956.09;4212472;28;5747;-72
2022/03/12 11:16:49;;;;;;;;;;;;;;;11.63;42.70;96954.94;4205777;28;5756;-69
2022/03/12 11:18:51;;;;;;;;;;;;;;;11.54;42.06;96949.97;4206928;28;5695;-62
2022/03/12 11:20:53;;;;;;;;;;;;;;;11.71;41.87;96946.00;4210664;28;5718;-64
2022/03/12 11:23:27;;;;;;;;;;;;;;;11.87;42.91;96944.88;4213313;28;5716;-65
2022/03/12 11:25:28;;;;;;;;;;;;;;;11.90;43.40;96934.72;4204609;28;5759;-63
2022/03/12 11:27:32;;;;;;;;;;;;;;;12.06;47.08;96944.16;4214742;28;5838;-65
2022/03/12 11:29:34;;;;;;;;;;;;;;;11.94;47.90;96929.84;4210061;28;5869;-64
2022/03/12 11:31:40;;;;;;;;;;;;;;;11.93;48.71;96925.56;4209206;28;5711;-62
2022/03/12 11:33:42;;;;;;;;;;;;;;;11.77;49.73;96939.91;4211403;28;5812;-64
2022/03/12 11:35:45;;;;;;;;;;;;;;;11.72;47.47;96942.34;4211284;28;5715;-65
2022/03/12 11:37:47;;;;;;;;;;;;;;;11.88;48.70;96943.88;4211173;28;5797;-63
2022/03/12 11:39:55;;;;;;;;;;;;;;;12.02;49.77;96945.56;4213030;28;5778;-63
2022/03/12 11:42:11;;;;;;;;;;;;;;;12.08;48.16;96936.81;4215795;28;5695;-63
2022/03/12 11:44:13;;;;;;;;;;;;;;;11.94;46.86;96935.16;4222258;28;5720;-63
2022/03/12 11:46:15;;;;;;;;;;;;;;;11.89;46.86;96925.16;4217086;28;5705;-62
2022/03/12 11:48:17;;;;;;;;;;;;;;;11.87;46.79;96923.69;4210885;28;5883;-64
2022/03/12 11:50:24;;;;;;;;;;;;;;;11.98;47.15;96920.47;4212569;28;5776;-64
2022/03/12 11:52:25;;;;;;;;;;;;;;;11.70;47.14;96917.91;4208853;28;5723;-64
2022/03/12 11:54:29;;;;;;;;;;;;;;;11.77;47.59;96902.84;4210712;28;5726;-65
2022/03/12 11:56:34;;;;;;;;;;;;;;;11.96;46.44;96911.91;4213129;28;5713;-61
2022/03/12 11:58:36;;;;;;;;;;;;;;;11.96;45.80;96911.91;4208862;28;5748;-64
2022/03/12 12:00:37;;;;;;;;;;;;;;;12.00;46.12;96917.63;4212072;28;5708;-66
2022/03/12 12:02:39;;;;;;;;;;;;;;;11.96;45.56;96906.63;4191147;28;5727;-67
2022/03/12 12:04:43;;;;;;;;;;;;;;;11.91;44.92;96904.56;4208355;28;5712;-70
2022/03/12 12:06:46;;;;;;;;;;;;;;;11.73;46.77;96901.59;4211580;28;5874;-70
2022/03/12 12:08:48;;;;;;;;;;;;;;;11.85;46.90;96905.34;4203769;28;5727;-70
2022/03/12 12:10:51;;;;;;;;;;;;;;;11.85;45.84;96901.88;4195227;28;5886;-70
2022/03/12 12:12:53;;;;;;;;;;;;;;;11.90;46.84;96902.13;4211817;28;5746;-70
2022/03/12 12:14:57;;;;;;;;;;;;;;;11.76;47.79;96903.84;4213860;28;5711;-70
2022/03/12 12:16:59;;;;;;;;;;;;;;;11.99;47.24;96895.59;4212766;28;6472;-70
2022/03/12 12:19:01;;;;;;;;;;;;;;;11.89;46.11;96893.38;4205722;28;5834;-70
2022/03/12 12:21:03;;;;;;;;;;;;;;;11.96;45.00;96888.06;4196678;28;5730;-70
2022/03/12 12:23:05;;;;;;;;;;;;;;;11.90;43.63;96881.75;4206570;28;6239;-71
2022/03/12 12:25:09;;;;;;;;;;;;;;;12.04;44.13;96884.44;4212765;28;6444;-71
2022/03/12 12:27:13;;;;;;;;;;;;;;;11.95;44.86;96883.78;4199744;28;6448;-71
2022/03/12 12:29:15;;;;;;;;;;;;;;;11.85;45.39;96888.63;4211159;28;5823;-70
2022/03/12 12:31:26;;;;;;;;;;;;;;;11.59;46.22;96879.56;4214489;28;5728;-71
2022/03/12 12:33:32;;;;;;;;;;;;;;;11.69;46.72;96870.44;4216482;28;6405;-71
2022/03/12 12:35:33;;;;;;;;;;;;;;;11.87;45.40;96863.59;4216583;28;5731;-71
2022/03/12 12:37:45;;;;;;;;;;;;;;;11.99;42.92;96869.13;4219783;28;5494;-71
2022/03/12 12:39:47;;;;;;;;;;;;;;;11.93;44.25;96856.69;4205736;28;7770;-71
2022/03/12 12:42:01;;;;;;;;;;;;;;;12.11;44.14;96859.56;4215986;28;6855;-71
2022/03/12 12:44:07;;;;;;;;;;;;;;;12.18;44.17;96856.94;4220895;28;6319;-72
2022/03/12 12:46:13;;;;;;;;;;;;;;;12.23;42.84;96855.31;4233456;28;5704;-71
2022/03/12 12:48:19;;;;;;;;;;;;;;;12.23;43.02;96865.94;4230563;28;5684;-71
2022/03/12 12:50:24;;;;;;;;;;;;;;;12.28;42.44;96852.06;4197570;28;5854;-70
2022/03/12 12:52:32;;;;;;;;;;;;;;;12.09;41.86;96852.84;4213993;28;5704;-71
2022/03/12 12:55:03;;;;;;;;;;;;;;;11.97;42.66;96854.44;4199597;28;5825;-69
2022/03/12 12:57:11;;;;;;;;;;;;;;;12.00;43.29;96849.53;4205284;28;5731;-69
2022/03/12 12:59:13;;;;;;;;;;;;;;;12.06;42.42;96851.41;4215698;28;5763;-65
2022/03/12 13:01:17;;;;;;;;;;;;;;;11.95;42.06;96847.50;4213580;28;5703;-66
2022/03/12 13:03:21;;;;;;;;;;;;;;;11.96;42.20;96848.31;4215699;28;5732;-67
2022/03/12 13:05:50;;;;;;;;;;;;;;;12.04;42.03;96850.81;4213145;28;5731;-67
2022/03/12 13:08:00;;;;;;;;;;;;;;;12.17;42.43;96840.22;4209125;28;5922;-67
2022/03/12 13:10:03;;;;;;;;;;;;;;;12.16;42.00;96837.78;4214928;28;5715;-67
2022/03/12 13:12:05;;;;;;;;;;;;;;;12.23;42.70;96835.94;4222806;28;5796;-67
2022/03/12 13:14:10;;;;;;;;;;;;;;;12.13;42.79;96833.69;4226347;28;5770;-67
2022/03/12 13:16:17;;;;;;;;;;;;;;;12.20;44.51;96826.56;4214522;28;5764;-67
2022/03/12 13:18:18;;;;;;;;;;;;;;;12.19;45.60;96827.56;4214248;28;5803;-67
2022/03/12 13:20:29;;;;;;;;;;;;;;;12.17;44.10;96820.84;4217298;28;5719;-67
2022/03/12 13:22:43;;;;;;;;;;;;;;;12.28;44.57;96824.75;4209326;28;5762;-67
2022/03/12 13:24:58;;;;;;;;;;;;;;;12.20;44.15;96815.97;4215644;28;5840;-68
2022/03/12 13:27:01;;;;;;;;;;;;;;;12.09;42.49;96816.56;4211193;28;5869;-68
2022/03/12 13:29:09;;;;;;;;;;;;;;;12.11;43.24;96811.03;4215416;28;5624;-68
2022/03/12 13:31:22;;;;;;;;;;;;;;;12.20;41.08;96815.97;4215810;28;5758;-67
2022/03/12 13:33:26;;;;;;;;;;;;;;;12.27;42.40;96805.38;4215540;28;6544;-68
2022/03/12 13:35:29;;;;;;;;;;;;;;;12.34;42.22;96808.00;4214250;28;6349;-68
2022/03/12 13:37:31;;;;;;;;;;;;;;;12.43;42.62;96814.75;4214346;28;6496;-68
2022/03/12 13:39:37;;;;;;;;;;;;;;;12.43;42.64;96809.44;4211680;28;5200;-67
2022/03/12 13:41:42;;;;;;;;;;;;;;;12.49;42.37;96816.59;4210968;28;5708;-67
2022/03/12 13:43:44;;;;;;;;;;;;;;;12.50;42.85;96812.91;4214328;28;5699;-68
2022/03/12 13:46:01;;;;;;;;;;;;;;;12.53;41.96;96812.50;4213283;28;5746;-67
2022/03/12 13:48:03;;;;;;;;;;;;;;;12.54;41.30;96811.47;4210877;28;5745;-67
2022/03/12 13:50:05;;;;;;;;;;;;;;;12.48;41.22;96807.00;4213133;28;5821;-68
2022/03/12 13:52:14;;;;;;;;;;;;;;;12.52;40.70;96808.22;4214552;28;6432;-68
2022/03/12 13:54:17;;;;;;;;;;;;;;;12.60;41.00;96802.72;4198114;28;5714;-67
2022/03/12 13:56:20;;;;;;;;;;;;;;;12.58;40.80;96801.28;4197983;28;5742;-68
2022/03/12 13:58:23;;;;;;;;;;;;;;;12.61;41.09;96798.22;4211038;28;5854;-67
2022/03/12 14:00:26;;;;;;;;;;;;;;;12.66;40.21;96806.38;4214977;28;5917;-68
2022/03/12 14:02:28;;;;;;;;;;;;;;;12.55;40.58;96799.84;4214581;28;7439;-69
2022/03/12 14:04:31;;;;;;;;;;;;;;;12.49;40.96;96800.69;4214682;28;5716;-68
2022/03/12 14:06:50;;;;;;;;;;;;;;;12.46;40.98;96803.75;4214478;28;5719;-69
2022/03/12 14:08:52;;;;;;;;;;;;;;;12.52;41.53;96801.06;4214813;28;5728;-68
2022/03/12 14:10:54;;;;;;;;;;;;;;;12.53;41.45;96793.94;4214724;28;5884;-68
2022/03/12 14:13:00;;;;;;;;;;;;;;;12.52;40.72;96794.97;4213722;28;5716;-68
2022/03/12 14:15:03;;;;;;;;;;;;;;;12.54;40.80;96793.72;4214804;28;5767;-68
2022/03/12 14:17:04;;;;;;;;;;;;;;;12.61;40.63;96792.91;4214736;28;5715;-68
2022/03/12 14:19:10;;;;;;;;;;;;;;;12.59;37.94;96790.47;4213294;28;6474;-68
2022/03/12 14:21:13;;;;;;;;;;;;;;;12.61;39.25;96790.28;4197618;28;5794;-69
2022/03/12 14:23:22;;;;;;;;;;;;;;;12.64;39.13;96787.19;4197273;28;5730;-68
2022/03/12 14:25:31;;;;;;;;;;;;;;;12.76;39.77;96782.88;4211016;28;5814;-69
2022/03/12 14:27:36;;;;;;;;;;;;;;;12.73;39.83;96786.78;4214525;28;5723;-68
2022/03/12 14:29:45;;;;;;;;;;;;;;;12.81;40.15;96783.91;4214374;28;5715;-67
2022/03/12 14:31:47;;;;;;;;;;;;;;;12.82;39.61;96774.94;4214315;28;5699;-68
2022/03/12 14:33:49;;;;;;;;;;;;;;;12.91;39.86;96772.03;4213936;28;5724;-68
2022/03/12 14:35:51;;;;;;;;;;;;;;;12.89;38.78;96766.13;4214319;28;5806;-68
2022/03/12 14:37:53;;;;;;;;;;;;;;;12.87;38.12;96765.53;4214197;28;5708;-67
2022/03/12 14:39:54;;;;;;;;;;;;;;;12.78;37.23;96759.63;4214456;28;5922;-67
2022/03/12 14:41:59;;;;;;;;;;;;;;;12.81;37.54;96768.00;4213813;28;6826;-68
2022/03/12 14:44:01;;;;;;;;;;;;;;;12.87;37.96;96757.56;4213722;28;5707;-67
2022/03/12 14:46:03;;;;;;;;;;;;;;;12.91;36.23;96758.78;4214253;28;5821;-68
2022/03/12 14:48:06;;;;;;;;;;;;;;;12.90;37.48;96757.13;4217815;28;5701;-67
2022/03/12 14:50:09;;;;;;;;;;;;;;;12.91;35.66;96758.78;4197387;28;5762;-68
2022/03/12 14:52:20;;;;;;;;;;;;;;;12.95;36.48;96760.00;4204369;28;5704;-68
2022/03/12 14:54:24;;;;;;;;;;;;;;;12.89;36.10;96763.47;4213730;28;5880;-67
2022/03/12 14:56:26;;;;;;;;;;;;;;;12.90;35.98;96765.09;4214096;28;5779;-68
2022/03/12 14:58:28;;;;;;;;;;;;;;;12.87;36.73;96760.22;4213321;28;5719;-68
2022/03/12 15:00:30;;;;;;;;;;;;;;;12.89;36.90;96763.47;4213960;28;5750;-68
2022/03/12 15:02:37;;;;;;;;;;;;;;;12.95;37.02;96758.16;4213936;28;5883;-68
2022/03/12 15:04:45;;;;;;;;;;;;;;;13.06;36.59;96754.06;4213602;28;5729;-68
2022/03/12 15:06:49;;;;;;;;;;;;;;;12.96;36.15;96749.19;4213610;28;5707;-68
2022/03/12 15:08:51;;;;;;;;;;;;;;;12.96;36.00;96751.00;4197025;28;5734;-69
2022/03/12 15:11:10;;;;;;;;;;;;;;;13.05;36.89;96744.47;4197344;28;5743;-69
2022/03/12 15:13:12;;;;;;;;;;;;;;;13.03;36.95;96747.31;4196759;28;5726;-69
2022/03/12 15:15:33;;;;;;;;;;;;;;;12.95;37.46;96746.72;4200363;28;5872;-67
2022/03/12 15:17:35;;;;;;;;;;;;;;;12.95;37.07;96739.59;4213394;28;5719;-68
2022/03/12 15:19:38;;;;;;;;;;;;;;;13.05;37.67;96747.13;4207993;28;5105;-69
2022/03/12 15:21:52;;;;;;;;;;;;;;;13.07;37.78;96729.13;4197056;28;5718;-68
2022/03/12 15:23:54;;;;;;;;;;;;;;;12.96;36.85;96740.41;4196665;28;6560;-68
2022/03/12 15:26:08;;;;;;;;;;;;;;;12.92;35.90;96737.38;4204657;28;5707;-68
2022/03/12 15:28:18;;;;;;;;;;;;;;;12.94;36.25;96740.63;4213420;28;5716;-67
2022/03/12 15:30:28;;;;;;;;;;;;;;;12.83;35.98;96730.66;4213529;28;5735;-66
2022/03/12 15:32:36;;;;;;;;;;;;;;;12.88;37.46;96735.31;4213288;28;5719;-66
2022/03/12 15:34:38;;;;;;;;;;;;;;;12.96;37.86;96732.44;4213587;28;5755;-67
2022/03/12 15:36:47;;;;;;;;;;;;;;;12.91;37.79;96733.09;4212073;28;6448;-67
2022/03/12 15:38:55;;;;;;;;;;;;;;;12.91;38.16;96735.72;4213350;28;5723;-67
2022/03/12 15:40:56;;;;;;;;;;;;;;;12.70;37.49;96739.47;4213620;28;5711;-67
2022/03/12 15:42:58;;;;;;;;;;;;;;;12.90;37.90;96733.25;4212658;28;5716;-67
2022/03/12 15:45:00;;;;;;;;;;;;;;;12.60;38.05;96727.66;4213462;28;5723;-67
2022/03/12 15:47:02;;;;;;;;;;;;;;;12.72;37.54;96725.97;4213411;28;5727;-67
2022/03/12 15:49:03;;;;;;;;;;;;;;;12.71;37.92;96725.16;4213082;28;5821;-68
2022/03/12 15:51:08;;;;;;;;;;;;;;;12.82;37.19;96724.53;4213324;28;5736;-67
2022/03/12 15:53:10;;;;;;;;;;;;;;;12.80;37.36;96729.22;4212734;28;5712;-67
2022/03/12 15:55:17;;;;;;;;;;;;;;;12.64;36.74;96728.84;4213285;28;5764;-67
2022/03/12 15:57:19;;;;;;;;;;;;;;;12.73;37.77;96725.78;4213401;28;5794;-67
2022/03/12 15:59:22;;;;;;;;;;;;;;;12.63;36.10;96722.72;4213061;28;5834;-67
2022/03/12 16:01:24;;;;;;;;;;;;;;;12.51;36.00;96725.22;4213299;28;5723;-68
2022/03/12 16:03:27;;;;;;;;;;;;;;;12.43;36.36;96725.41;4213843;28;5704;-67
2022/03/12 16:05:29;;;;;;;;;;;;;;;12.42;36.60;96722.97;4216770;28;5704;-67
2022/03/12 16:07:36;;;;;;;;;;;;;;;12.42;36.33;96726.44;4216429;28;5731;-67
2022/03/12 16:09:37;;;;;;;;;;;;;;;12.49;36.75;96731.75;4216791;28;5736;-67
2022/03/12 16:11:41;;;;;;;;;;;;;;;12.40;36.48;96717.06;4216449;28;5810;-67
2022/03/12 16:13:43;;;;;;;;;;;;;;;12.38;36.53;96725.22;4216285;28;5758;-68
2022/03/12 16:15:50;;;;;;;;;;;;;;;12.29;36.49;96720.34;4216490;28;5735;-68
2022/03/12 16:17:53;;;;;;;;;;;;;;;12.37;36.84;96728.09;4216633;28;5712;-68
2022/03/12 16:19:55;;;;;;;;;;;;;;;12.37;37.12;96722.78;4214466;28;5721;-68
2022/03/12 16:21:57;;;;;;;;;;;;;;;12.53;37.73;96709.91;4211256;28;5723;-69
2022/03/12 16:23:58;;;;;;;;;;;;;;;12.41;36.81;96710.75;4211990;28;5692;-65
2022/03/12 16:26:04;;;;;;;;;;;;;;;12.48;37.32;96708.91;4214007;28;6491;-65
2022/03/12 16:28:06;;;;;;;;;;;;;;;12.58;37.20;96714.59;4211061;28;5715;-65
2022/03/12 16:30:09;;;;;;;;;;;;;;;12.59;37.44;96696.84;4215320;28;5930;-65
2022/03/12 16:32:11;;;;;;;;;;;;;;;12.52;37.32;96705.63;4213218;28;5839;-65
2022/03/12 16:34:13;;;;;;;;;;;;;;;12.63;38.10;96703.34;4213983;28;5727;-66
2022/03/12 16:36:15;;;;;;;;;;;;;;;12.67;38.09;96712.50;4211524;28;5731;-66
2022/03/12 16:38:18;;;;;;;;;;;;;;;12.69;37.71;96705.19;4213588;28;5728;-65
2022/03/12 16:40:20;;;;;;;;;;;;;;;12.67;37.96;96701.91;4213752;28;6393;-66
2022/03/12 16:42:25;;;;;;;;;;;;;;;12.70;38.23;96706.81;4215240;28;6495;-66
2022/03/12 16:44:26;;;;;;;;;;;;;;;12.72;38.22;96702.94;4213020;28;5726;-68
2022/03/12 16:46:29;;;;;;;;;;;;;;;12.63;38.57;96700.69;4214954;28;6370;-72
2022/03/12 16:48:34;;;;;;;;;;;;;;;12.56;38.59;96706.00;4213537;28;6468;-64
2022/03/12 16:50:36;;;;;;;;;;;;;;;12.64;39.11;96712.94;4212711;28;5722;-64
2022/03/12 16:52:38;;;;;;;;;;;;;;;12.59;39.83;96716.22;4214179;28;5717;-64
2022/03/12 16:54:41;;;;;;;;;;;;;;;12.49;39.57;96710.53;4213304;28;5902;-64
2022/03/12 16:56:42;;;;;;;;;;;;;;;12.52;39.57;96710.09;4211907;28;5711;-64
2022/03/12 16:58:45;;;;;;;;;;;;;;;12.56;39.74;96708.66;4211208;28;5763;-64
2022/03/12 17:00:46;;;;;;;;;;;;;;;12.39;39.25;96713.59;4214616;28;5807;-64
2022/03/12 17:02:48;;;;;;;;;;;;;;;12.37;39.33;96710.34;4211950;28;5715;-63
2022/03/12 17:04:51;;;;;;;;;;;;;;;12.42;39.00;96718.47;4213267;28;5707;-63
2022/03/12 17:06:53;;;;;;;;;;;;;;;12.45;38.98;96711.94;4203358;28;5723;-63
2022/03/12 17:08:55;;;;;;;;;;;;;;;12.38;38.49;96716.47;4211211;28;5801;-65
2022/03/12 17:10:57;;;;;;;;;;;;;;;12.30;39.47;96714.00;4208496;28;5786;-66
2022/03/12 17:13:01;;;;;;;;;;;;;;;12.26;39.83;96710.97;4209663;28;5727;-66
2022/03/12 17:15:07;;;;;;;;;;;;;;;12.18;40.67;96712.00;4211533;28;5706;-66
2022/03/12 17:17:09;;;;;;;;;;;;;;;12.09;40.74;96707.91;4211754;28;5715;-67
2022/03/12 17:19:13;;;;;;;;;;;;;;;12.23;40.99;96706.06;4212625;28;5211;-67
2022/03/12 17:21:15;;;;;;;;;;;;;;;12.21;41.29;96708.91;4206962;28;7791;-65
2022/03/12 17:23:17;;;;;;;;;;;;;;;12.21;41.26;96710.75;4211227;28;5724;-64
2022/03/12 17:25:21;;;;;;;;;;;;;;;12.14;40.76;96710.78;4211101;28;5751;-66
2022/03/12 17:27:30;;;;;;;;;;;;;;;12.21;41.26;96718.72;4208073;28;5708;-65
2022/03/12 17:29:33;;;;;;;;;;;;;;;12.27;41.21;96701.19;4215202;28;5707;-65
2022/03/12 17:31:35;;;;;;;;;;;;;;;12.29;39.82;96707.09;4216778;28;6469;-66
2022/03/12 17:33:37;;;;;;;;;;;;;;;12.23;38.35;96714.00;4211528;28;5728;-63
2022/03/12 17:35:41;;;;;;;;;;;;;;;12.16;37.16;96708.72;4209352;28;5863;-65
2022/03/12 17:37:42;;;;;;;;;;;;;;;12.07;35.88;96704.66;4212189;28;5817;-63
2022/03/12 17:39:46;;;;;;;;;;;;;;;12.06;35.04;96707.50;4208251;28;5723;-64
2022/03/12 17:41:49;;;;;;;;;;;;;;;12.07;33.87;96701.19;4209710;28;6421;-64
2022/03/12 17:43:52;;;;;;;;;;;;;;;12.16;33.68;96694.66;4214258;28;5711;-65
2022/03/12 17:45:54;;;;;;;;;;;;;;;12.17;32.69;96697.09;4209637;28;6206;-62
2022/03/12 17:47:56;;;;;;;;;;;;;;;12.20;32.41;96695.88;4220284;28;5708;-63
2022/03/12 17:50:00;;;;;;;;;;;;;;;12.24;32.56;96707.72;4213257;28;5720;-64
2022/03/12 17:52:08;;;;;;;;;;;;;;;12.24;31.67;96697.13;4202859;28;5732;-63
2022/03/12 17:54:11;;;;;;;;;;;;;;;12.22;31.81;96699.13;4215794;28;5692;-63
2022/03/12 17:56:13;;;;;;;;;;;;;;;12.24;32.01;96703.22;4208300;28;6452;-67
2022/03/12 17:58:14;;;;;;;;;;;;;;;12.23;31.73;96696.31;4211709;28;5738;-68
2022/03/12 18:00:20;;;;;;;;;;;;;;;12.27;32.33;96701.19;4212478;28;5096;-68
2022/03/12 18:02:23;;;;;;;;;;;;;;;12.25;31.72;96701.38;4207294;28;5730;-71
2022/03/12 18:04:25;;;;;;;;;;;;;;;12.22;31.81;96704.44;4212364;28;5728;-72
2022/03/12 18:06:27;;;;;;;;;;;;;;;12.25;31.66;96698.75;4210914;28;5841;-65
2022/03/12 18:08:29;;;;;;;;;;;;;;;12.20;31.69;96707.28;4209362;28;5800;-66
2022/03/12 18:10:32;;;;;;;;;;;;;;;12.16;31.53;96711.38;4213540;28;5209;-67
2022/03/12 18:12:35;;;;;;;;;;;;;;;12.18;31.87;96697.91;4212085;28;7661;-66
2022/03/12 18:14:37;;;;;;;;;;;;;;;12.13;31.27;96689.78;4210968;28;5818;-66
2022/03/12 18:16:40;;;;;;;;;;;;;;;12.12;31.27;96688.97;4211713;28;5826;-66
2022/03/12 18:18:45;;;;;;;;;;;;;;;12.09;30.89;96705.25;4210574;28;5731;-66
2022/03/12 18:20:51;;;;;;;;;;;;;;;12.09;31.61;96696.50;4207922;28;5799;-66
2022/03/12 18:22:52;;;;;;;;;;;;;;;12.07;31.07;96702.00;4218670;28;6428;-66
2022/03/12 18:24:54;;;;;;;;;;;;;;;12.08;31.03;96700.16;4209951;28;6225;-66
2022/03/12 18:26:59;;;;;;;;;;;;;;;12.05;31.08;96701.41;4211974;28;5707;-66
2022/03/12 18:29:01;;;;;;;;;;;;;;;12.05;31.28;96697.94;4212775;28;5804;-66
2022/03/12 18:31:04;;;;;;;;;;;;;;;12.03;31.11;96690.19;4206353;28;5715;-66
2022/03/12 18:33:06;;;;;;;;;;;;;;;12.03;31.00;96700.78;4207677;28;6413;-66
2022/03/12 18:35:11;;;;;;;;;;;;;;;12.03;31.89;96695.50;4210592;28;5731;-66
2022/03/12 18:37:18;;;;;;;;;;;;;;;12.02;31.58;96703.66;4200712;28;5750;-66
2022/03/12 18:39:20;;;;;;;;;;;;;;;11.94;31.10;96700.19;4199583;28;5894;-66
2022/03/12 18:41:22;;;;;;;;;;;;;;;11.90;31.40;96706.09;4219533;28;5746;-66
2022/03/12 18:43:25;;;;;;;;;;;;;;;11.85;31.38;96704.03;4201939;28;5636;-66
2022/03/12 18:45:28;;;;;;;;;;;;;;;11.82;31.50;96693.03;4212933;28;5722;-66
2022/03/12 18:47:29;;;;;;;;;;;;;;;11.79;31.40;96702.22;4211812;28;6441;-66